sensor_id;sensor_type;location;lat;lon;timestamp;pressure;altitude;pressure_sealevel;temperature;humidity
68137;BME280;54939;50.826;9.030;2024-02-21T00:00:21;99449.31;;;10.20;72.02
68137;BME280;54939;50.826;9.030;2024-02-21T00:00:52;99456.22;;;10.23;72.20
68137;BME280;54939;50.826;9.030;2024-02-21T00:01:23;99448.34;;;10.21;72.51
68137;BME280;54939;50.826;9.030;2024-02-21T00:01:53;99447.34;;;10.22;72.20
68137;BME280;54939;50.826;9.030;2024-02-21T00:02:23;99451.84;;;10.22;71.88
68137;BME280;54939;50.826;9.030;2024-02-21T00:02:53;99445.66;;;10.21;72.26
68137;BME280;54939;50.826;9.030;2024-02-21T00:03:23;99442.88;;;10.23;72.21
68137;BME280;54939;50.826;9.030;2024-02-21T00:03:53;99442.03;;;10.22;71.89
68137;BME280;54939;50.826;9.030;2024-02-21T00:04:24;99449.19;;;10.22;72.16
68137;BME280;54939;50.826;9.030;2024-02-21T00:04:54;99445.53;;;10.23;72.14
68137;BME280;54939;50.826;9.030;2024-02-21T00:05:24;99442.88;;;10.23;71.96
68137;BME280;54939;50.826;9.030;2024-02-21T00:05:54;99442.03;;;10.22;71.95
68137;BME280;54939;50.826;9.030;2024-02-21T00:06:24;99447.34;;;10.22;72.04
68137;BME280;54939;50.826;9.030;2024-02-21T00:06:56;99444.53;;;10.24;71.79
68137;BME280;54939;50.826;9.030;2024-02-21T00:07:26;99439.19;;;10.24;71.90
68137;BME280;54939;50.826;9.030;2024-02-21T00:07:58;99441.88;;;10.24;71.89
68137;BME280;54939;50.826;9.030;2024-02-21T00:08:29;99435.00;;;10.21;71.98
68137;BME280;54939;50.826;9.030;2024-02-21T00:08:59;99432.19;;;10.23;71.87
68137;BME280;54939;50.826;9.030;2024-02-21T00:09:29;99430.50;;;10.22;71.77
68137;BME280;54939;50.826;9.030;2024-02-21T00:09:59;99431.47;;;10.21;71.56
68137;BME280;54939;50.826;9.030;2024-02-21T00:10:30;99432.31;;;10.21;71.78
68137;BME280;54939;50.826;9.030;2024-02-21T00:11:02;99433.16;;;10.22;71.87
68137;BME280;54939;50.826;9.030;2024-02-21T00:11:32;99434.13;;;10.21;71.98
68137;BME280;54939;50.826;9.030;2024-02-21T00:12:02;99435.00;;;10.21;71.79
68137;BME280;54939;50.826;9.030;2024-02-21T00:12:33;99433.16;;;10.22;72.01
68137;BME280;54939;50.826;9.030;2024-02-21T00:13:03;99432.31;;;10.21;71.86
68137;BME280;54939;50.826;9.030;2024-02-21T00:13:33;99435.84;;;10.22;72.03
68137;BME280;54939;50.826;9.030;2024-02-21T00:14:03;99430.63;;;10.20;71.86
68137;BME280;54939;50.826;9.030;2024-02-21T00:14:33;99426.97;;;10.21;72.06
68137;BME280;54939;50.826;9.030;2024-02-21T00:15:04;99427.84;;;10.22;72.16
68137;BME280;54939;50.826;9.030;2024-02-21T00:15:34;99425.16;;;10.22;72.24
68137;BME280;54939;50.826;9.030;2024-02-21T00:16:04;99426.84;;;10.23;71.90
68137;BME280;54939;50.826;9.030;2024-02-21T00:16:34;99431.47;;;10.21;72.08
68137;BME280;54939;50.826;9.030;2024-02-21T00:17:05;99426.13;;;10.21;71.98
68137;BME280;54939;50.826;9.030;2024-02-21T00:17:35;99429.66;;;10.21;71.85
68137;BME280;54939;50.826;9.030;2024-02-21T00:18:05;99427.84;;;10.22;72.37
68137;BME280;54939;50.826;9.030;2024-02-21T00:18:35;99414.50;;;10.22;72.07
68137;BME280;54939;50.826;9.030;2024-02-21T00:19:05;99419.81;;;10.22;72.01
68137;BME280;54939;50.826;9.030;2024-02-21T00:19:35;99424.19;;;10.23;72.26
68137;BME280;54939;50.826;9.030;2024-02-21T00:20:06;99421.53;;;10.23;72.01
68137;BME280;54939;50.826;9.030;2024-02-21T00:20:36;99421.53;;;10.23;71.96
68137;BME280;54939;50.826;9.030;2024-02-21T00:21:06;99418.13;;;10.21;71.85
68137;BME280;54939;50.826;9.030;2024-02-21T00:21:37;99423.19;;;10.24;71.92
68137;BME280;54939;50.826;9.030;2024-02-21T00:22:07;99420.66;;;10.22;71.67
68137;BME280;54939;50.826;9.030;2024-02-21T00:22:38;99420.66;;;10.22;72.04
68137;BME280;54939;50.826;9.030;2024-02-21T00:23:08;99425.16;;;10.22;72.06
68137;BME280;54939;50.826;9.030;2024-02-21T00:23:38;99416.19;;;10.23;72.03
68137;BME280;54939;50.826;9.030;2024-02-21T00:24:08;99418.84;;;10.23;72.12
68137;BME280;54939;50.826;9.030;2024-02-21T00:24:38;99414.50;;;10.22;71.80
68137;BME280;54939;50.826;9.030;2024-02-21T00:25:09;99419.81;;;10.22;72.01
68137;BME280;54939;50.826;9.030;2024-02-21T00:25:39;99413.50;;;10.23;72.18
68137;BME280;54939;50.826;9.030;2024-02-21T00:26:09;99414.34;;;10.23;71.90
68137;BME280;54939;50.826;9.030;2024-02-21T00:26:39;99416.19;;;10.23;71.90
68137;BME280;54939;50.826;9.030;2024-02-21T00:27:09;99405.50;;;10.23;71.95
68137;BME280;54939;50.826;9.030;2024-02-21T00:27:39;99410.84;;;10.23;72.12
68137;BME280;54939;50.826;9.030;2024-02-21T00:28:10;99409.16;;;10.22;72.21
68137;BME280;54939;50.826;9.030;2024-02-21T00:28:40;99405.50;;;10.23;72.08
68137;BME280;54939;50.826;9.030;2024-02-21T00:29:10;99405.50;;;10.23;72.05
68137;BME280;54939;50.826;9.030;2024-02-21T00:29:40;99405.50;;;10.23;71.99
68137;BME280;54939;50.826;9.030;2024-02-21T00:30:11;99405.50;;;10.23;71.96
68137;BME280;54939;50.826;9.030;2024-02-21T00:30:41;99404.50;;;10.24;71.88
68137;BME280;54939;50.826;9.030;2024-02-21T00:31:11;99407.34;;;10.22;71.81
68137;BME280;54939;50.826;9.030;2024-02-21T00:31:41;99407.16;;;10.24;71.79
68137;BME280;54939;50.826;9.030;2024-02-21T00:32:12;99402.00;;;10.22;72.11
68137;BME280;54939;50.826;9.030;2024-02-21T00:32:42;99409.00;;;10.23;72.20
68137;BME280;54939;50.826;9.030;2024-02-21T00:33:12;99399.31;;;10.22;71.91
68137;BME280;54939;50.826;9.030;2024-02-21T00:33:42;99401.16;;;10.22;71.78
68137;BME280;54939;50.826;9.030;2024-02-21T00:34:12;99399.31;;;10.22;72.07
68137;BME280;54939;50.826;9.030;2024-02-21T00:34:43;99392.28;;;10.21;71.83
68137;BME280;54939;50.826;9.030;2024-02-21T00:35:14;99397.63;;;10.21;71.85
68137;BME280;54939;50.826;9.030;2024-02-21T00:35:44;99391.31;;;10.22;71.76
68137;BME280;54939;50.826;9.030;2024-02-21T00:36:14;99400.16;;;10.23;71.71
68137;BME280;54939;50.826;9.030;2024-02-21T00:36:45;99394.84;;;10.23;71.83
68137;BME280;54939;50.826;9.030;2024-02-21T00:37:15;99392.28;;;10.21;72.22
68137;BME280;54939;50.826;9.030;2024-02-21T00:37:45;99392.16;;;10.23;71.95
68137;BME280;54939;50.826;9.030;2024-02-21T00:38:15;99392.16;;;10.23;71.70
68137;BME280;54939;50.826;9.030;2024-02-21T00:38:46;99394.00;;;10.22;71.92
68137;BME280;54939;50.826;9.030;2024-02-21T00:39:16;99396.66;;;10.22;71.55
68137;BME280;54939;50.826;9.030;2024-02-21T00:39:46;99391.31;;;10.22;71.81
68137;BME280;54939;50.826;9.030;2024-02-21T00:40:16;99395.81;;;10.22;71.83
68137;BME280;54939;50.826;9.030;2024-02-21T00:40:50;99393.13;;;10.22;72.16
68137;BME280;54939;50.826;9.030;2024-02-21T00:41:20;99391.31;;;10.22;71.77
68137;BME280;54939;50.826;9.030;2024-02-21T00:41:50;99394.84;;;10.23;72.01
68137;BME280;54939;50.826;9.030;2024-02-21T00:42:20;99398.47;;;10.22;71.77
68137;BME280;54939;50.826;9.030;2024-02-21T00:42:51;99398.59;;;10.20;72.05
68137;BME280;54939;50.826;9.030;2024-02-21T00:43:21;99397.75;;;10.20;72.12
68137;BME280;54939;50.826;9.030;2024-02-21T00:43:53;99399.44;;;10.21;71.80
68137;BME280;54939;50.826;9.030;2024-02-21T00:44:23;99394.13;;;10.21;72.06
68137;BME280;54939;50.826;9.030;2024-02-21T00:44:54;99392.44;;;10.20;71.99
68137;BME280;54939;50.826;9.030;2024-02-21T00:45:24;99388.78;;;10.21;71.95
68137;BME280;54939;50.826;9.030;2024-02-21T00:45:54;99386.97;;;10.21;71.73
68137;BME280;54939;50.826;9.030;2024-02-21T00:46:24;99395.81;;;10.22;71.88
68137;BME280;54939;50.826;9.030;2024-02-21T00:46:54;99388.78;;;10.21;71.74
68137;BME280;54939;50.826;9.030;2024-02-21T00:47:25;99392.28;;;10.21;71.63
68137;BME280;54939;50.826;9.030;2024-02-21T00:47:55;99386.97;;;10.21;71.85
68137;BME280;54939;50.826;9.030;2024-02-21T00:48:25;99392.44;;;10.20;71.93
68137;BME280;54939;50.826;9.030;2024-02-21T00:48:55;99382.97;;;10.16;72.14
68137;BME280;54939;50.826;9.030;2024-02-21T00:49:26;99392.44;;;10.20;71.82
68137;BME280;54939;50.826;9.030;2024-02-21T00:49:56;99392.44;;;10.20;71.94
68137;BME280;54939;50.826;9.030;2024-02-21T00:50:26;99391.44;;;10.21;71.87
68137;BME280;54939;50.826;9.030;2024-02-21T00:50:56;99391.44;;;10.21;72.28
68137;BME280;54939;50.826;9.030;2024-02-21T00:51:26;99391.44;;;10.21;71.85
68137;BME280;54939;50.826;9.030;2024-02-21T00:51:56;99389.63;;;10.21;72.13
68137;BME280;54939;50.826;9.030;2024-02-21T00:52:27;99389.16;;;10.16;72.04
68137;BME280;54939;50.826;9.030;2024-02-21T00:52:57;99386.97;;;10.21;71.95
68137;BME280;54939;50.826;9.030;2024-02-21T00:53:27;99393.28;;;10.20;72.16
68137;BME280;54939;50.826;9.030;2024-02-21T00:53:57;99391.44;;;10.21;71.87
68137;BME280;54939;50.826;9.030;2024-02-21T00:54:27;99389.75;;;10.20;72.30
68137;BME280;54939;50.826;9.030;2024-02-21T00:54:57;99392.44;;;10.20;72.03
68137;BME280;54939;50.826;9.030;2024-02-21T00:55:28;99387.94;;;10.20;71.79
68137;BME280;54939;50.826;9.030;2024-02-21T00:55:58;99395.94;;;10.20;71.87
68137;BME280;54939;50.826;9.030;2024-02-21T00:56:28;99391.44;;;10.21;72.01
68137;BME280;54939;50.826;9.030;2024-02-21T00:56:59;99391.44;;;10.21;71.97
68137;BME280;54939;50.826;9.030;2024-02-21T00:57:29;99392.44;;;10.20;71.73
68137;BME280;54939;50.826;9.030;2024-02-21T00:58:00;99388.91;;;10.19;71.88
68137;BME280;54939;50.826;9.030;2024-02-21T00:58:30;99394.13;;;10.21;71.98
68137;BME280;54939;50.826;9.030;2024-02-21T00:59:00;99389.63;;;10.21;71.87
68137;BME280;54939;50.826;9.030;2024-02-21T00:59:30;99393.28;;;10.20;72.05
68137;BME280;54939;50.826;9.030;2024-02-21T01:00:01;99400.31;;;10.21;72.06
68137;BME280;54939;50.826;9.030;2024-02-21T01:00:31;99394.00;;;10.22;71.94
68137;BME280;54939;50.826;9.030;2024-02-21T01:01:01;99398.47;;;10.22;71.75
68137;BME280;54939;50.826;9.030;2024-02-21T01:01:33;99398.47;;;10.22;71.68
68137;BME280;54939;50.826;9.030;2024-02-21T01:02:03;99399.44;;;10.21;71.82
68137;BME280;54939;50.826;9.030;2024-02-21T01:02:33;99397.63;;;10.21;71.83
68137;BME280;54939;50.826;9.030;2024-02-21T01:03:03;99402.13;;;10.21;72.00
68137;BME280;54939;50.826;9.030;2024-02-21T01:03:33;99403.81;;;10.22;71.66
68137;BME280;54939;50.826;9.030;2024-02-21T01:04:04;99398.47;;;10.22;71.67
68137;BME280;54939;50.826;9.030;2024-02-21T01:04:34;99402.13;;;10.21;71.87
68137;BME280;54939;50.826;9.030;2024-02-21T01:05:04;99403.81;;;10.22;71.83
68137;BME280;54939;50.826;9.030;2024-02-21T01:05:35;99404.78;;;10.21;71.86
68137;BME280;54939;50.826;9.030;2024-02-21T01:06:05;99406.47;;;10.22;71.78
68137;BME280;54939;50.826;9.030;2024-02-21T01:06:36;99413.63;;;10.21;71.80
68137;BME280;54939;50.826;9.030;2024-02-21T01:07:06;99407.59;;;10.19;72.24
68137;BME280;54939;50.826;9.030;2024-02-21T01:07:36;99410.97;;;10.21;72.00
68137;BME280;54939;50.826;9.030;2024-02-21T01:08:07;99416.19;;;10.23;71.91
68137;BME280;54939;50.826;9.030;2024-02-21T01:08:37;99410.13;;;10.21;71.87
68137;BME280;54939;50.826;9.030;2024-02-21T01:09:07;99407.34;;;10.22;71.72
68137;BME280;54939;50.826;9.030;2024-02-21T01:09:37;99402.97;;;10.21;71.60
68137;BME280;54939;50.826;9.030;2024-02-21T01:10:08;99401.16;;;10.22;71.66
68137;BME280;54939;50.826;9.030;2024-02-21T01:10:38;99407.34;;;10.22;71.88
68137;BME280;54939;50.826;9.030;2024-02-21T01:11:08;99407.34;;;10.22;71.74
68137;BME280;54939;50.826;9.030;2024-02-21T01:11:38;99407.34;;;10.22;71.72
68137;BME280;54939;50.826;9.030;2024-02-21T01:12:09;99407.16;;;10.24;71.58
68137;BME280;54939;50.826;9.030;2024-02-21T01:12:39;99409.00;;;10.23;71.71
68137;BME280;54939;50.826;9.030;2024-02-21T01:13:09;99401.84;;;10.24;71.69
68137;BME280;54939;50.826;9.030;2024-02-21T01:13:39;99409.00;;;10.23;71.71
68137;BME280;54939;50.826;9.030;2024-02-21T01:14:09;99410.00;;;10.22;71.60
68137;BME280;54939;50.826;9.030;2024-02-21T01:14:41;99410.13;;;10.21;71.91
68137;BME280;54939;50.826;9.030;2024-02-21T01:15:11;99402.97;;;10.21;71.75
68137;BME280;54939;50.826;9.030;2024-02-21T01:15:41;99408.31;;;10.21;71.62
68137;BME280;54939;50.826;9.030;2024-02-21T01:16:11;99403.81;;;10.22;71.76
68137;BME280;54939;50.826;9.030;2024-02-21T01:16:42;99402.00;;;10.22;71.56
68137;BME280;54939;50.826;9.030;2024-02-21T01:17:12;99405.50;;;10.23;71.57
68137;BME280;54939;50.826;9.030;2024-02-21T01:17:42;99403.94;;;10.20;71.65
68137;BME280;54939;50.826;9.030;2024-02-21T01:18:12;99402.97;;;10.21;71.74
68137;BME280;54939;50.826;9.030;2024-02-21T01:18:42;99398.47;;;10.22;71.76
68137;BME280;54939;50.826;9.030;2024-02-21T01:19:13;99402.97;;;10.21;71.63
68137;BME280;54939;50.826;9.030;2024-02-21T01:19:46;99396.78;;;10.21;71.80
68137;BME280;54939;50.826;9.030;2024-02-21T01:20:16;99395.09;;;10.20;71.55
68137;BME280;54939;50.826;9.030;2024-02-21T01:20:47;99395.09;;;10.20;71.51
68137;BME280;54939;50.826;9.030;2024-02-21T01:21:17;99396.91;;;10.19;71.86
68137;BME280;54939;50.826;9.030;2024-02-21T01:21:47;99395.22;;;10.18;71.77
68137;BME280;54939;50.826;9.030;2024-02-21T01:22:18;99397.88;;;10.18;71.72
68137;BME280;54939;50.826;9.030;2024-02-21T01:22:48;99393.41;;;10.19;72.06
68137;BME280;54939;50.826;9.030;2024-02-21T01:23:18;99390.72;;;10.19;72.15
68137;BME280;54939;50.826;9.030;2024-02-21T01:23:48;99393.28;;;10.20;71.98
68137;BME280;54939;50.826;9.030;2024-02-21T01:24:18;99388.78;;;10.21;71.80
68137;BME280;54939;50.826;9.030;2024-02-21T01:24:48;99393.28;;;10.20;71.86
68137;BME280;54939;50.826;9.030;2024-02-21T01:25:19;99395.94;;;10.20;71.92
68137;BME280;54939;50.826;9.030;2024-02-21T01:25:49;99395.94;;;10.20;71.97
68137;BME280;54939;50.826;9.030;2024-02-21T01:26:19;99382.59;;;10.20;71.84
68137;BME280;54939;50.826;9.030;2024-02-21T01:26:49;99388.91;;;10.19;71.96
68137;BME280;54939;50.826;9.030;2024-02-21T01:27:19;99385.41;;;10.19;71.88
68137;BME280;54939;50.826;9.030;2024-02-21T01:27:50;99379.09;;;10.20;71.98
68137;BME280;54939;50.826;9.030;2024-02-21T01:28:21;99383.56;;;10.19;71.83
68137;BME280;54939;50.826;9.030;2024-02-21T01:28:52;99379.09;;;10.20;71.75
68137;BME280;54939;50.826;9.030;2024-02-21T01:29:28;99379.09;;;10.20;71.98
68137;BME280;54939;50.826;9.030;2024-02-21T01:29:58;99372.91;;;10.19;71.86
68137;BME280;54939;50.826;9.030;2024-02-21T01:30:28;99373.75;;;10.20;71.87
68137;BME280;54939;50.826;9.030;2024-02-21T01:30:58;99369.25;;;10.20;72.07
68137;BME280;54939;50.826;9.030;2024-02-21T01:31:29;99366.59;;;10.20;71.97
68137;BME280;54939;50.826;9.030;2024-02-21T01:31:59;99369.25;;;10.20;71.95
68137;BME280;54939;50.826;9.030;2024-02-21T01:32:30;99369.38;;;10.19;71.99
68137;BME280;54939;50.826;9.030;2024-02-21T01:33:00;99371.22;;;10.18;71.75
68137;BME280;54939;50.826;9.030;2024-02-21T01:33:30;99367.56;;;10.19;71.99
68137;BME280;54939;50.826;9.030;2024-02-21T01:34:04;99367.56;;;10.19;72.06
68137;BME280;54939;50.826;9.030;2024-02-21T01:34:34;99365.88;;;10.18;71.68
68137;BME280;54939;50.826;9.030;2024-02-21T01:35:05;99363.31;;;10.17;71.66
68137;BME280;54939;50.826;9.030;2024-02-21T01:35:35;99359.81;;;10.16;71.85
68137;BME280;54939;50.826;9.030;2024-02-21T01:36:06;99357.16;;;10.16;71.79
68137;BME280;54939;50.826;9.030;2024-02-21T01:36:36;99357.16;;;10.16;71.80
68137;BME280;54939;50.826;9.030;2024-02-21T01:37:07;99366.72;;;10.19;71.94
68137;BME280;54939;50.826;9.030;2024-02-21T01:37:37;99364.03;;;10.19;71.76
68137;BME280;54939;50.826;9.030;2024-02-21T01:38:07;99364.91;;;10.19;71.62
68137;BME280;54939;50.826;9.030;2024-02-21T01:38:37;99356.03;;;10.19;71.53
68137;BME280;54939;50.826;9.030;2024-02-21T01:39:08;99357.88;;;10.18;71.83
68137;BME280;54939;50.826;9.030;2024-02-21T01:39:38;99357.03;;;10.18;71.78
68137;BME280;54939;50.826;9.030;2024-02-21T01:40:08;99357.03;;;10.18;71.77
68137;BME280;54939;50.826;9.030;2024-02-21T01:40:38;99357.88;;;10.18;71.63
68137;BME280;54939;50.826;9.030;2024-02-21T01:41:09;99359.69;;;10.18;71.68
68137;BME280;54939;50.826;9.030;2024-02-21T01:41:39;99355.31;;;10.17;71.89
68137;BME280;54939;50.826;9.030;2024-02-21T01:42:09;99348.28;;;10.16;71.86
68137;BME280;54939;50.826;9.030;2024-02-21T01:42:39;99357.16;;;10.16;72.38
68137;BME280;54939;50.826;9.030;2024-02-21T01:43:19;99359.81;;;10.16;71.82
68137;BME280;54939;50.826;9.030;2024-02-21T01:43:50;99354.47;;;10.16;71.82
68137;BME280;54939;50.826;9.030;2024-02-21T01:44:20;99357.88;;;10.18;71.88
68137;BME280;54939;50.826;9.030;2024-02-21T01:44:50;99350.72;;;10.19;71.96
68137;BME280;54939;50.826;9.030;2024-02-21T01:45:21;99356.03;;;10.19;71.76
68137;BME280;54939;50.826;9.030;2024-02-21T01:45:55;99364.91;;;10.19;71.61
68137;BME280;54939;50.826;9.030;2024-02-21T01:46:25;99365.63;;;10.21;71.80
68137;BME280;54939;50.826;9.030;2024-02-21T01:47:00;99356.88;;;10.19;71.81
68137;BME280;54939;50.826;9.030;2024-02-21T01:47:31;99368.41;;;10.20;71.64
68137;BME280;54939;50.826;9.030;2024-02-21T01:48:01;99354.09;;;10.21;71.94
68137;BME280;54939;50.826;9.030;2024-02-21T01:48:31;99361.25;;;10.20;71.92
68137;BME280;54939;50.826;9.030;2024-02-21T01:49:02;99362.09;;;10.21;71.63
68137;BME280;54939;50.826;9.030;2024-02-21T01:49:32;99357.75;;;10.20;71.72
68137;BME280;54939;50.826;9.030;2024-02-21T01:50:02;99356.75;;;10.21;71.65
68137;BME280;54939;50.826;9.030;2024-02-21T01:50:33;99364.78;;;10.21;71.83
68137;BME280;54939;50.826;9.030;2024-02-21T01:51:03;99358.59;;;10.20;71.72
68137;BME280;54939;50.826;9.030;2024-02-21T01:51:34;99355.06;;;10.20;71.97
68137;BME280;54939;50.826;9.030;2024-02-21T01:52:04;99356.88;;;10.19;71.66
68137;BME280;54939;50.826;9.030;2024-02-21T01:52:35;99351.41;;;10.21;71.45
68137;BME280;54939;50.826;9.030;2024-02-21T01:53:05;99350.44;;;10.22;71.60
68137;BME280;54939;50.826;9.030;2024-02-21T01:53:37;99354.09;;;10.21;71.70
68137;BME280;54939;50.826;9.030;2024-02-21T01:54:07;99349.59;;;10.21;71.67
68137;BME280;54939;50.826;9.030;2024-02-21T01:54:38;99347.91;;;10.20;71.57
68137;BME280;54939;50.826;9.030;2024-02-21T01:55:08;99347.06;;;10.20;71.75
68137;BME280;54939;50.826;9.030;2024-02-21T01:55:39;99345.38;;;10.19;71.72
68137;BME280;54939;50.826;9.030;2024-02-21T01:56:09;99350.72;;;10.19;71.66
68137;BME280;54939;50.826;9.030;2024-02-21T01:56:40;99350.72;;;10.19;71.61
68137;BME280;54939;50.826;9.030;2024-02-21T01:57:10;99350.56;;;10.20;71.73
68137;BME280;54939;50.826;9.030;2024-02-21T01:57:41;99351.41;;;10.21;71.64
68137;BME280;54939;50.826;9.030;2024-02-21T01:58:13;99353.25;;;10.20;71.55
68137;BME280;54939;50.826;9.030;2024-02-21T01:58:43;99350.56;;;10.20;71.60
68137;BME280;54939;50.826;9.030;2024-02-21T01:59:14;99346.22;;;10.19;71.63
68137;BME280;54939;50.826;9.030;2024-02-21T01:59:45;99348.75;;;10.21;71.64
68137;BME280;54939;50.826;9.030;2024-02-21T02:00:16;99349.72;;;10.20;71.80
68137;BME280;54939;50.826;9.030;2024-02-21T02:00:46;99346.22;;;10.19;71.63
68137;BME280;54939;50.826;9.030;2024-02-21T02:01:17;99351.69;;;10.18;71.69
68137;BME280;54939;50.826;9.030;2024-02-21T02:01:47;99343.69;;;10.18;71.57
68137;BME280;54939;50.826;9.030;2024-02-21T02:02:18;99347.06;;;10.20;71.71
68137;BME280;54939;50.826;9.030;2024-02-21T02:02:48;99339.06;;;10.20;71.91
68137;BME280;54939;50.826;9.030;2024-02-21T02:03:19;99340.88;;;10.19;71.77
68137;BME280;54939;50.826;9.030;2024-02-21T02:03:49;99340.88;;;10.19;71.34
68137;BME280;54939;50.826;9.030;2024-02-21T02:04:20;99333.97;;;10.17;71.76
68137;BME280;54939;50.826;9.030;2024-02-21T02:04:50;99341.13;;;10.16;71.79
68137;BME280;54939;50.826;9.030;2024-02-21T02:05:20;99328.63;;;10.17;71.94
68137;BME280;54939;50.826;9.030;2024-02-21T02:05:51;99333.00;;;10.18;71.70
68137;BME280;54939;50.826;9.030;2024-02-21T02:06:21;99337.38;;;10.19;71.59
68137;BME280;54939;50.826;9.030;2024-02-21T02:06:51;99333.13;;;10.16;71.67
68137;BME280;54939;50.826;9.030;2024-02-21T02:07:22;99331.31;;;10.17;71.84
68137;BME280;54939;50.826;9.030;2024-02-21T02:07:52;99337.38;;;10.19;71.79
68137;BME280;54939;50.826;9.030;2024-02-21T02:08:23;99332.88;;;10.19;71.71
68137;BME280;54939;50.826;9.030;2024-02-21T02:08:53;99329.34;;;10.19;71.82
68137;BME280;54939;50.826;9.030;2024-02-21T02:09:24;99330.34;;;10.18;71.70
68137;BME280;54939;50.826;9.030;2024-02-21T02:09:54;99332.88;;;10.19;71.75
68137;BME280;54939;50.826;9.030;2024-02-21T02:10:24;99328.50;;;10.18;71.86
68137;BME280;54939;50.826;9.030;2024-02-21T02:10:54;99327.94;;;10.15;71.69
68137;BME280;54939;50.826;9.030;2024-02-21T02:11:25;99332.03;;;10.19;71.65
68137;BME280;54939;50.826;9.030;2024-02-21T02:11:55;99331.06;;;10.20;71.49
68137;BME280;54939;50.826;9.030;2024-02-21T02:12:25;99331.19;;;10.18;71.65
68137;BME280;54939;50.826;9.030;2024-02-21T02:12:55;99331.19;;;10.18;71.68
68137;BME280;54939;50.826;9.030;2024-02-21T02:13:25;99331.06;;;10.20;71.77
68137;BME280;54939;50.826;9.030;2024-02-21T02:13:56;99331.19;;;10.18;71.73
68137;BME280;54939;50.826;9.030;2024-02-21T02:14:26;99333.00;;;10.18;71.67
68137;BME280;54939;50.826;9.030;2024-02-21T02:15:02;99332.88;;;10.19;71.81
68137;BME280;54939;50.826;9.030;2024-02-21T02:15:42;99332.88;;;10.19;71.78
68137;BME280;54939;50.826;9.030;2024-02-21T02:16:12;99331.19;;;10.18;71.81
68137;BME280;54939;50.826;9.030;2024-02-21T02:16:42;99333.72;;;10.20;71.58
68137;BME280;54939;50.826;9.030;2024-02-21T02:17:15;99325.84;;;10.18;71.59
68137;BME280;54939;50.826;9.030;2024-02-21T02:17:46;99328.50;;;10.18;71.63
68137;BME280;54939;50.826;9.030;2024-02-21T02:18:17;99324.88;;;10.19;71.81
68137;BME280;54939;50.826;9.030;2024-02-21T02:18:47;99322.19;;;10.19;71.82
68137;BME280;54939;50.826;9.030;2024-02-21T02:19:18;99315.31;;;10.17;71.66
68137;BME280;54939;50.826;9.030;2024-02-21T02:19:48;99316.03;;;10.19;71.62
68137;BME280;54939;50.826;9.030;2024-02-21T02:20:18;99323.06;;;10.20;71.65
68137;BME280;54939;50.826;9.030;2024-02-21T02:20:48;99315.03;;;10.20;71.65
68137;BME280;54939;50.826;9.030;2024-02-21T02:21:27;99317.84;;;10.18;71.88
68137;BME280;54939;50.826;9.030;2024-02-21T02:22:00;99315.31;;;10.17;71.60
68137;BME280;54939;50.826;9.030;2024-02-21T02:22:33;99317.13;;;10.16;71.79
68137;BME280;54939;50.826;9.030;2024-02-21T02:23:35;99314.47;;;10.16;71.84
68137;BME280;54939;50.826;9.030;2024-02-21T02:24:06;99309.13;;;10.16;71.87
68137;BME280;54939;50.826;9.030;2024-02-21T02:24:36;99307.44;;;10.15;71.99
68137;BME280;54939;50.826;9.030;2024-02-21T02:25:06;99312.75;;;10.15;71.76
68137;BME280;54939;50.826;9.030;2024-02-21T02:25:37;99309.13;;;10.16;71.76
68137;BME280;54939;50.826;9.030;2024-02-21T02:26:08;99304.63;;;10.17;71.86
68137;BME280;54939;50.826;9.030;2024-02-21T02:26:38;99306.44;;;10.16;71.65
68137;BME280;54939;50.826;9.030;2024-02-21T02:27:08;99304.63;;;10.17;71.88
68137;BME280;54939;50.826;9.030;2024-02-21T02:27:42;99303.78;;;10.16;71.70
68137;BME280;54939;50.826;9.030;2024-02-21T02:28:14;99297.59;;;10.16;71.63
68137;BME280;54939;50.826;9.030;2024-02-21T02:28:44;99309.00;;;10.18;71.84
68137;BME280;54939;50.826;9.030;2024-02-21T02:29:14;99300.97;;;10.18;71.63
68137;BME280;54939;50.826;9.030;2024-02-21T02:29:45;99301.13;;;10.16;71.77
68137;BME280;54939;50.826;9.030;2024-02-21T02:30:15;99299.44;;;10.15;71.71
68137;BME280;54939;50.826;9.030;2024-02-21T02:30:45;99295.91;;;10.15;71.76
68137;BME280;54939;50.826;9.030;2024-02-21T02:31:15;99299.44;;;10.15;71.77
68137;BME280;54939;50.826;9.030;2024-02-21T02:31:45;99295.91;;;10.15;71.83
68137;BME280;54939;50.826;9.030;2024-02-21T02:32:15;99285.09;;;10.16;71.73
68137;BME280;54939;50.826;9.030;2024-02-21T02:32:46;99288.63;;;10.17;71.84
68137;BME280;54939;50.826;9.030;2024-02-21T02:33:16;99294.94;;;10.16;71.72
68137;BME280;54939;50.826;9.030;2024-02-21T02:33:49;99288.75;;;10.15;71.77
68137;BME280;54939;50.826;9.030;2024-02-21T02:34:20;99291.53;;;10.14;71.64
68137;BME280;54939;50.826;9.030;2024-02-21T02:34:50;99279.06;;;10.14;71.68
68137;BME280;54939;50.826;9.030;2024-02-21T02:35:20;99278.94;;;10.16;71.48
68137;BME280;54939;50.826;9.030;2024-02-21T02:35:50;99275.41;;;10.15;71.88
68137;BME280;54939;50.826;9.030;2024-02-21T02:36:20;99276.25;;;10.16;71.73
68137;BME280;54939;50.826;9.030;2024-02-21T02:36:51;99273.72;;;10.14;71.64
68137;BME280;54939;50.826;9.030;2024-02-21T02:37:21;99272.88;;;10.14;71.74
68137;BME280;54939;50.826;9.030;2024-02-21T02:37:51;99273.72;;;10.14;71.86
68137;BME280;54939;50.826;9.030;2024-02-21T02:38:21;99273.84;;;10.13;71.66
68137;BME280;54939;50.826;9.030;2024-02-21T02:38:51;99276.53;;;10.13;71.87
68137;BME280;54939;50.826;9.030;2024-02-21T02:39:21;99270.22;;;10.14;71.72
68137;BME280;54939;50.826;9.030;2024-02-21T02:39:51;99276.53;;;10.13;71.82
68137;BME280;54939;50.826;9.030;2024-02-21T02:40:22;99279.19;;;10.13;71.82
68137;BME280;54939;50.826;9.030;2024-02-21T02:40:52;99272.03;;;10.13;71.68
68137;BME280;54939;50.826;9.030;2024-02-21T02:41:22;99276.38;;;10.14;71.78
68137;BME280;54939;50.826;9.030;2024-02-21T02:41:52;99273.72;;;10.14;71.66
68137;BME280;54939;50.826;9.030;2024-02-21T02:42:22;99273.72;;;10.14;71.42